Time;durP1;ratioP1;P1;durP2;ratioP2;P2;SDS_P1;SDS_P2;PMS_P1;PMS_P2;Temp;Humidity;BMP_temperature;BMP_pressure;BME280_temperature;BME280_humidity;BME280_pressure;Samples;Min_cycle;Max_cycle;Signal;HPM_P1;HPM_P2
2023/04/14 00:00:25;;;;;;;1.37;1.27;;;4.10;99.90;;;;;;5117530;27;20167;-81
2023/04/14 00:02:51;;;;;;;1.73;1.50;;;4.20;99.90;;;;;;5136402;27;20579;-82
2023/04/14 00:05:16;;;;;;;2.33;1.80;;;4.20;99.90;;;;;;5118082;27;20218;-81
2023/04/14 00:07:42;;;;;;;2.37;1.60;;;4.20;99.90;;;;;;5136816;27;20179;-82
2023/04/14 00:10:08;;;;;;;2.30;1.50;;;4.10;99.90;;;;;;5136390;27;20167;-81
2023/04/14 00:12:34;;;;;;;1.83;1.57;;;4.10;99.90;;;;;;5136760;27;20194;-82
2023/04/14 00:15:00;;;;;;;4.03;1.80;;;4.00;99.90;;;;;;5137130;27;20693;-81
2023/04/14 00:17:25;;;;;;;2.47;2.00;;;3.90;99.90;;;;;;5136567;27;20170;-82
2023/04/14 00:19:51;;;;;;;2.20;2.00;;;3.80;99.90;;;;;;5117900;27;20186;-81
2023/04/14 00:22:17;;;;;;;3.03;2.27;;;3.70;99.90;;;;;;5125040;27;20697;-82
2023/04/14 00:24:43;;;;;;;2.13;1.93;;;3.70;99.90;;;;;;5097979;28;20172;-81
2023/04/14 00:27:09;;;;;;;1.97;1.63;;;3.70;99.90;;;;;;5116548;28;20255;-81
2023/04/14 00:29:37;;;;;;;2.20;1.40;;;3.60;99.90;;;;;;5097611;28;20183;-78
2023/04/14 00:32:03;;;;;;;1.40;1.30;;;3.70;99.90;;;;;;5097659;28;20681;-82
2023/04/14 00:34:29;;;;;;;1.87;1.57;;;3.60;99.90;;;;;;5115954;28;20176;-82
2023/04/14 00:36:54;;;;;;;1.93;1.60;;;3.50;99.90;;;;;;5115982;28;20246;-81
2023/04/14 00:39:20;;;;;;;1.93;1.70;;;3.40;99.90;;;;;;5116649;28;20220;-81
2023/04/14 00:41:45;;;;;;;2.30;1.97;;;3.50;99.90;;;;;;5097565;28;20180;-81
2023/04/14 00:44:11;;;;;;;2.20;2.00;;;3.50;99.90;;;;;;5097918;28;20179;-81
2023/04/14 00:46:39;;;;;;;2.93;1.80;;;3.50;99.90;;;;;;5117021;27;20245;-81
2023/04/14 00:49:05;;;;;;;2.10;1.90;;;3.50;99.90;;;;;;5137258;27;20179;-81
2023/04/14 00:51:32;;;;;;;2.07;1.70;;;3.50;99.90;;;;;;5117930;27;20724;-81
2023/04/14 00:54:01;;;;;;;2.67;1.80;;;3.50;99.90;;;;;;5119018;27;20257;-81
2023/04/14 00:56:28;;;;;;;1.90;1.70;;;3.60;99.90;;;;;;5137389;27;20191;-81
2023/04/14 00:58:54;;;;;;;1.73;1.40;;;3.50;99.90;;;;;;5118802;27;20175;-81
2023/04/14 01:01:20;;;;;;;1.43;1.33;;;3.60;99.90;;;;;;5118519;27;20263;-81
2023/04/14 01:03:47;;;;;;;1.90;1.67;;;3.60;99.90;;;;;;5137689;27;20649;-81
2023/04/14 01:06:12;;;;;;;2.00;1.67;;;3.70;99.90;;;;;;5137562;27;20187;-81
2023/04/14 01:08:38;;;;;;;2.70;2.23;;;3.70;99.90;;;;;;5138343;27;20180;-81
2023/04/14 01:11:13;;;;;;;2.47;2.07;;;3.50;99.90;;;;;;5118570;27;20203;-81
2023/04/14 01:14:16;;;;;;;2.63;1.83;;;3.40;99.90;;;;;;5119298;27;20171;-82
2023/04/14 01:16:44;;;;;;;2.23;1.80;;;3.30;99.90;;;;;;5116031;27;20234;-81
2023/04/14 01:19:09;;;;;;;2.10;1.90;;;3.40;99.90;;;;;;5138191;27;20177;-81
2023/04/14 01:21:40;;;;;;;2.53;1.80;;;3.40;99.90;;;;;;5118910;27;20613;-81
2023/04/14 01:24:39;;;;;;;2.47;1.80;;;3.50;99.90;;;;;;5138028;27;20178;-81
2023/04/14 01:27:26;;;;;;;1.57;1.43;;;3.50;99.90;;;;;;5132559;27;20210;-81
2023/04/14 01:30:06;;;;;;;2.10;1.70;;;3.60;99.90;;;;;;5117304;28;20254;-81
2023/04/14 01:32:35;;;;;;;2.00;1.80;;;3.60;99.90;;;;;;5100345;28;20199;-81
2023/04/14 01:35:12;;;;;;;2.27;1.70;;;3.70;99.90;;;;;;5099316;28;20171;-81
2023/04/14 01:37:44;;;;;;;1.60;1.30;;;3.70;99.90;;;;;;5119951;28;20184;-81
2023/04/14 01:40:15;;;;;;;2.00;1.50;;;3.70;99.90;;;;;;5097478;28;20598;-80
2023/04/14 01:42:46;;;;;;;2.43;1.60;;;3.70;99.90;;;;;;5113534;28;20167;-81
2023/04/14 01:45:23;;;;;;;2.07;1.87;;;3.60;99.90;;;;;;5095328;28;20252;-81
2023/04/14 01:47:51;;;;;;;2.17;1.83;;;3.50;99.90;;;;;;5113800;28;20166;-81
2023/04/14 01:50:19;;;;;;;2.07;1.87;;;3.50;99.90;;;;;;5094985;28;20176;-81
2023/04/14 01:52:46;;;;;;;2.03;1.67;;;3.40;99.90;;;;;;5095266;28;20210;-81
2023/04/14 01:55:16;;;;;;;2.13;1.47;;;3.30;99.90;;;;;;5113309;28;20179;-81
2023/04/14 01:57:44;;;;;;;1.93;1.60;;;3.30;99.90;;;;;;5095050;28;20183;-81
2023/04/14 02:00:10;;;;;;;1.90;1.70;;;3.30;99.90;;;;;;5094689;28;20172;-81
2023/04/14 02:02:38;;;;;;;1.90;1.60;;;3.30;99.90;;;;;;5113113;28;20175;-81
2023/04/14 02:05:07;;;;;;;2.00;1.80;;;3.40;99.90;;;;;;5095532;28;20192;-81
2023/04/14 02:07:34;;;;;;;1.60;1.40;;;3.30;99.90;;;;;;5095560;28;20197;-81
2023/04/14 02:10:00;;;;;;;1.93;1.73;;;3.20;99.90;;;;;;5094719;28;20178;-80
2023/04/14 02:12:27;;;;;;;1.97;1.50;;;3.20;99.90;;;;;;5095698;28;20202;-81
2023/04/14 02:14:54;;;;;;;1.67;1.50;;;3.10;99.90;;;;;;5095772;28;20175;-81
2023/04/14 02:17:20;;;;;;;1.60;1.50;;;3.10;99.90;;;;;;5095344;28;20259;-81
2023/04/14 02:19:48;;;;;;;2.10;1.50;;;3.10;99.90;;;;;;5094769;28;20176;-81
2023/04/14 02:22:14;;;;;;;1.80;1.50;;;3.00;99.90;;;;;;5114080;28;20171;-81
2023/04/14 02:24:39;;;;;;;2.20;1.63;;;3.00;99.90;;;;;;5095887;28;20178;-81
2023/04/14 02:27:09;;;;;;;1.77;1.40;;;3.00;99.90;;;;;;5113714;28;20201;-82
2023/04/14 02:29:37;;;;;;;1.80;1.60;;;3.00;99.90;;;;;;5113833;28;20246;-80
2023/04/14 02:32:06;;;;;;;2.47;1.70;;;3.10;99.90;;;;;;5113548;28;20196;-81
2023/04/14 02:34:52;;;;;;;2.40;1.90;;;3.00;99.90;;;;;;5095557;28;20171;-81
2023/04/14 02:37:22;;;;;;;2.73;1.80;;;3.10;99.90;;;;;;5095681;28;20180;-82
2023/04/14 02:39:54;;;;;;;3.97;1.80;;;3.00;99.90;;;;;;5095042;28;20209;-81
2023/04/14 02:42:24;;;;;;;1.90;1.63;;;3.00;99.90;;;;;;5095955;28;20278;-81
2023/04/14 02:44:58;;;;;;;4.17;1.80;;;2.90;99.90;;;;;;5095435;28;20195;-81
2023/04/14 02:47:42;;;;;;;1.90;1.60;;;3.00;99.90;;;;;;5117476;28;20213;-82
2023/04/14 02:50:12;;;;;;;1.50;1.40;;;3.00;99.90;;;;;;5098651;28;20514;-81
2023/04/14 02:52:39;;;;;;;1.67;1.40;;;3.10;99.90;;;;;;5117823;28;20244;-81
2023/04/14 02:55:06;;;;;;;1.97;1.40;;;3.00;99.90;;;;;;5117733;28;20225;-79
2023/04/14 02:57:32;;;;;;;2.07;1.53;;;3.10;99.90;;;;;;5119129;27;20218;-82
2023/04/14 02:59:59;;;;;;;1.43;1.20;;;3.10;99.90;;;;;;5137187;27;20174;-82
2023/04/14 03:02:25;;;;;;;1.50;1.40;;;3.10;99.90;;;;;;5119176;27;20179;-81
2023/04/14 03:04:52;;;;;;;1.70;1.40;;;3.10;99.90;;;;;;5138241;27;20170;-82
2023/04/14 03:07:20;;;;;;;2.07;1.40;;;3.00;99.90;;;;;;5119149;27;20239;-82
2023/04/14 03:09:49;;;;;;;1.63;1.37;;;3.00;99.90;;;;;;5136674;27;20180;-81
2023/04/14 03:12:16;;;;;;;1.43;1.30;;;3.00;99.90;;;;;;5118945;27;20198;-82
2023/04/14 03:14:43;;;;;;;2.40;1.40;;;3.00;99.90;;;;;;5137438;27;20181;-81
2023/04/14 03:17:10;;;;;;;2.23;1.20;;;2.90;99.90;;;;;;5118928;27;20660;-82
2023/04/14 03:19:40;;;;;;;1.43;1.33;;;2.70;99.90;;;;;;5118627;27;20652;-78
2023/04/14 03:22:09;;;;;;;1.30;1.20;;;2.60;99.90;;;;;;5137654;27;20171;-82
2023/04/14 03:24:36;;;;;;;1.20;1.10;;;2.60;99.90;;;;;;5137134;27;20196;-81
2023/04/14 03:27:10;;;;;;;1.47;1.30;;;2.60;99.90;;;;;;5127994;27;20240;-81
2023/04/14 03:29:39;;;;;;;1.63;1.43;;;2.60;99.90;;;;;;5128747;27;20191;-78
2023/04/14 03:32:07;;;;;;;1.60;1.50;;;2.70;99.90;;;;;;5119442;27;20201;-82
2023/04/14 03:34:40;;;;;;;2.07;1.33;;;2.80;99.90;;;;;;5138001;27;20178;-81
2023/04/14 03:37:08;;;;;;;1.70;1.50;;;2.90;99.90;;;;;;5119497;27;20221;-82
2023/04/14 03:39:38;;;;;;;1.97;1.50;;;2.90;99.90;;;;;;5118998;27;20177;-81
2023/04/14 03:42:06;;;;;;;2.43;1.50;;;2.90;99.90;;;;;;5117259;27;20265;-82
2023/04/14 03:44:35;;;;;;;2.90;1.67;;;2.90;99.90;;;;;;5137817;27;20196;-82
2023/04/14 03:47:02;;;;;;;4.87;1.70;;;2.90;99.90;;;;;;5137699;27;20190;-82
2023/04/14 03:49:31;;;;;;;4.50;1.70;;;2.70;99.90;;;;;;5119768;27;20201;-82
2023/04/14 03:52:01;;;;;;;4.67;1.90;;;2.70;99.90;;;;;;5119009;27;20705;-82
2023/04/14 03:54:29;;;;;;;3.43;1.53;;;2.70;99.90;;;;;;5119140;27;20169;-82
2023/04/14 03:56:56;;;;;;;2.63;1.47;;;2.70;99.90;;;;;;5137595;27;20219;-82
2023/04/14 03:59:24;;;;;;;3.87;1.70;;;2.70;99.90;;;;;;5119484;27;20171;-82
2023/04/14 04:01:51;;;;;;;5.53;1.80;;;2.60;99.90;;;;;;5135191;27;20207;-81
2023/04/14 04:04:18;;;;;;;9.40;1.90;;;2.60;99.90;;;;;;5138391;27;20181;-82
2023/04/14 04:06:44;;;;;;;4.60;2.03;;;2.60;99.90;;;;;;5138892;27;20199;-82
2023/04/14 04:09:13;;;;;;;5.03;1.90;;;2.60;99.90;;;;;;5139138;27;20185;-81
2023/04/14 04:11:44;;;;;;;6.80;1.90;;;2.70;99.90;;;;;;5120186;27;20206;-82
2023/04/14 04:14:11;;;;;;;3.33;2.07;;;2.70;99.90;;;;;;5120634;27;20170;-82
2023/04/14 04:16:39;;;;;;;4.90;1.90;;;2.70;99.90;;;;;;5136348;27;20186;-82
2023/04/14 04:19:05;;;;;;;7.47;2.30;;;2.70;99.90;;;;;;5116575;27;20656;-83
2023/04/14 04:21:35;;;;;;;2.63;1.97;;;2.80;99.90;;;;;;5119878;27;20188;-82
2023/04/14 04:24:03;;;;;;;3.27;2.30;;;2.80;99.90;;;;;;5139482;27;20174;-82
2023/04/14 04:26:29;;;;;;;2.80;2.40;;;2.90;99.90;;;;;;5120933;27;20194;-82
2023/04/14 04:28:59;;;;;;;2.67;2.27;;;2.90;99.90;;;;;;5121267;27;20175;-82
2023/04/14 04:31:27;;;;;;;3.40;2.70;;;2.90;99.90;;;;;;5139091;27;20285;-82
2023/04/14 04:33:53;;;;;;;3.40;2.30;;;3.00;99.90;;;;;;5138610;27;20207;-82
2023/04/14 04:36:19;;;;;;;3.80;2.67;;;3.10;99.90;;;;;;5130083;22;20693;-81
2023/04/14 04:38:45;;;;;;;2.50;2.30;;;3.20;99.90;;;;;;5114741;28;20203;-81
2023/04/14 04:41:21;;;;;;;5.50;3.00;;;3.20;99.90;;;;;;5114321;28;20168;-81
2023/04/14 04:43:46;;;;;;;3.00;2.50;;;3.10;99.90;;;;;;5113497;28;20170;-80
2023/04/14 04:46:38;;;;;;;4.83;2.40;;;3.20;99.90;;;;;;5113755;28;20268;-80
2023/04/14 04:49:04;;;;;;;4.70;2.43;;;3.20;99.90;;;;;;5111232;28;20263;-81
2023/04/14 04:51:30;;;;;;;3.50;2.40;;;3.20;99.90;;;;;;5114102;28;20285;-81
2023/04/14 04:53:55;;;;;;;3.50;2.80;;;3.20;99.90;;;;;;5114506;28;20174;-81
2023/04/14 04:56:21;;;;;;;2.97;2.67;;;3.20;99.90;;;;;;5114361;28;20183;-81
2023/04/14 04:58:47;;;;;;;3.40;2.50;;;3.10;99.90;;;;;;5114586;28;20197;-80
2023/04/14 05:01:14;;;;;;;3.73;2.73;;;3.10;99.90;;;;;;5112729;28;20258;-80
2023/04/14 05:03:41;;;;;;;2.47;2.27;;;3.00;99.90;;;;;;5113471;28;20257;-80
2023/04/14 05:06:07;;;;;;;3.13;2.40;;;3.00;99.90;;;;;;5113272;28;20329;-81
2023/04/14 05:08:32;;;;;;;2.87;2.53;;;3.00;99.90;;;;;;5112748;28;20207;-81
2023/04/14 05:10:58;;;;;;;3.17;2.50;;;3.00;99.90;;;;;;5113785;28;20262;-81
2023/04/14 05:13:24;;;;;;;5.37;2.70;;;3.00;99.90;;;;;;5115030;28;20255;-80
2023/04/14 05:15:50;;;;;;;6.17;2.63;;;3.00;99.90;;;;;;5112968;28;20198;-81
2023/04/14 05:18:16;;;;;;;5.23;3.30;;;2.90;99.90;;;;;;5114202;27;20537;-81
2023/04/14 05:20:42;;;;;;;14.43;3.57;;;2.90;99.90;;;;;;5112549;28;20229;-82
2023/04/14 05:23:07;;;;;;;4.93;3.67;;;2.90;99.90;;;;;;5090533;28;20184;-81
2023/04/14 05:25:33;;;;;;;21.60;4.30;;;2.90;99.90;;;;;;5091659;28;20701;-81
2023/04/14 05:27:58;;;;;;;11.83;3.53;;;2.90;99.90;;;;;;5092096;28;20592;-81
2023/04/14 05:30:24;;;;;;;6.40;3.40;;;2.90;99.90;;;;;;5091844;28;20199;-81
2023/04/14 05:32:50;;;;;;;57.57;5.03;;;2.90;99.90;;;;;;5092018;28;20199;-81
2023/04/14 05:35:15;;;;;;;10.47;3.43;;;2.90;99.90;;;;;;5101382;28;20177;-81
2023/04/14 05:37:41;;;;;;;42.30;5.20;;;2.80;99.90;;;;;;5113302;28;20190;-80
2023/04/14 05:40:07;;;;;;;18.50;4.80;;;2.80;99.90;;;;;;5094554;28;20182;-84
2023/04/14 05:42:33;;;;;;;15.30;4.47;;;2.80;99.90;;;;;;5095132;28;20170;-82
2023/04/14 05:44:58;;;;;;;27.97;7.80;;;2.90;99.90;;;;;;5094930;28;20186;-85
2023/04/14 05:47:24;;;;;;;43.90;6.00;;;2.80;99.90;;;;;;5094944;28;20280;-83
2023/04/14 05:49:49;;;;;;;18.00;5.00;;;2.80;99.90;;;;;;5113215;28;20659;-82
2023/04/14 05:52:15;;;;;;;31.63;5.47;;;2.70;99.90;;;;;;5114351;28;20667;-81
2023/04/14 05:54:41;;;;;;;18.70;4.60;;;2.80;99.90;;;;;;5098189;28;20182;-81
2023/04/14 05:57:06;;;;;;;18.00;4.53;;;2.80;99.90;;;;;;5096855;28;20209;-80
2023/04/14 05:59:32;;;;;;;15.30;4.83;;;2.70;99.90;;;;;;5112743;28;20182;-83
2023/04/14 06:01:58;;;;;;;8.03;4.40;;;2.70;99.90;;;;;;5093961;28;20308;-84
2023/04/14 06:04:24;;;;;;;22.70;4.57;;;2.70;99.90;;;;;;5094090;28;20178;-82
2023/04/14 06:06:50;;;;;;;8.77;4.20;;;2.80;99.90;;;;;;5094420;28;20698;-81
2023/04/14 06:09:15;;;;;;;13.17;4.20;;;2.80;99.90;;;;;;5095144;28;20177;-82
2023/04/14 06:11:41;;;;;;;10.90;4.40;;;2.80;99.90;;;;;;5094327;28;20566;-81
2023/04/14 06:14:06;;;;;;;23.57;4.63;;;2.70;99.90;;;;;;5094789;28;20168;-81
2023/04/14 06:16:32;;;;;;;19.37;5.03;;;2.80;99.90;;;;;;5112922;28;20190;-82
2023/04/14 06:18:58;;;;;;;25.60;5.03;;;2.90;99.90;;;;;;5112832;28;20171;-82
2023/04/14 06:21:23;;;;;;;24.17;5.33;;;3.00;99.90;;;;;;5096825;28;20165;-82
2023/04/14 06:23:49;;;;;;;11.97;4.20;;;3.00;99.90;;;;;;5117184;28;20175;-82
2023/04/14 06:26:15;;;;;;;21.97;4.40;;;3.10;99.90;;;;;;5099167;28;20655;-82
2023/04/14 06:28:40;;;;;;;13.53;4.73;;;3.30;99.90;;;;;;5098862;28;20633;-83
2023/04/14 06:31:06;;;;;;;8.90;4.00;;;3.30;99.90;;;;;;5116892;28;20265;-82
2023/04/14 06:33:31;;;;;;;3.97;3.47;;;3.50;99.90;;;;;;5098939;28;20557;-82
2023/04/14 06:35:57;;;;;;;6.07;3.80;;;3.70;99.90;;;;;;5120669;28;20225;-81
2023/04/14 06:38:24;;;;;;;6.23;3.50;;;3.60;99.90;;;;;;5124504;28;20198;-81
2023/04/14 06:40:50;;;;;;;5.30;3.37;;;3.70;99.90;;;;;;5104751;28;20174;-82
2023/04/14 06:43:16;;;;;;;5.30;3.70;;;3.80;99.90;;;;;;5122913;28;20202;-82
2023/04/14 06:45:42;;;;;;;5.03;3.50;;;4.00;99.90;;;;;;5123553;28;20183;-81
2023/04/14 06:48:08;;;;;;;4.27;3.60;;;4.10;99.90;;;;;;5122563;28;20178;-82
2023/04/14 06:50:34;;;;;;;5.43;3.60;;;4.20;99.90;;;;;;5116794;28;20170;-81
2023/04/14 06:52:59;;;;;;;4.17;3.30;;;4.20;99.90;;;;;;5117677;28;20206;-81
2023/04/14 06:55:25;;;;;;;4.53;3.80;;;4.40;99.90;;;;;;5099919;28;20175;-81
2023/04/14 06:57:50;;;;;;;4.70;3.70;;;4.40;99.90;;;;;;5099140;28;20183;-82
2023/04/14 07:00:16;;;;;;;5.80;4.63;;;4.40;99.90;;;;;;5115971;28;20180;-79
2023/04/14 07:02:42;;;;;;;4.33;3.40;;;4.60;99.90;;;;;;5119733;28;20171;-79
2023/04/14 07:05:07;;;;;;;4.80;3.80;;;5.10;99.90;;;;;;5100404;27;20171;-80
2023/04/14 07:07:39;;;;;;;4.30;3.37;;;5.50;99.90;;;;;;5100349;28;20195;-79
2023/04/14 07:10:05;;;;;;;4.17;3.67;;;5.80;99.90;;;;;;5096619;28;20239;-79
2023/04/14 07:12:30;;;;;;;4.50;3.57;;;6.10;99.90;;;;;;5101794;28;20283;-80
2023/04/14 07:14:56;;;;;;;4.23;3.30;;;6.30;99.90;;;;;;5104590;28;20235;-80
2023/04/14 07:17:21;;;;;;;4.70;4.10;;;6.40;99.90;;;;;;5118637;28;20195;-80
2023/04/14 07:19:47;;;;;;;4.97;4.10;;;6.50;99.90;;;;;;5100203;28;20177;-79
2023/04/14 07:22:12;;;;;;;4.10;3.70;;;6.60;99.90;;;;;;5118086;28;20271;-78
2023/04/14 07:24:38;;;;;;;6.10;4.10;;;6.60;99.90;;;;;;5121824;28;20209;-80
2023/04/14 07:27:06;;;;;;;4.77;3.90;;;6.50;99.90;;;;;;5105887;28;20209;-80
2023/04/14 07:29:32;;;;;;;6.07;4.57;;;6.20;99.90;;;;;;5106118;28;20193;-79
2023/04/14 07:31:58;;;;;;;5.13;4.23;;;5.80;99.90;;;;;;5122188;28;20205;-80
2023/04/14 07:34:23;;;;;;;5.70;4.57;;;5.70;99.90;;;;;;5104263;28;20241;-83
2023/04/14 07:36:49;;;;;;;6.57;4.70;;;5.60;99.90;;;;;;5097870;28;20213;-80
2023/04/14 07:39:15;;;;;;;8.67;6.33;;;5.40;99.90;;;;;;5124263;28;20177;-79
2023/04/14 07:41:41;;;;;;;8.60;4.90;;;5.20;99.90;;;;;;5118726;28;20196;-81
2023/04/14 07:44:07;;;;;;;5.13;4.10;;;5.20;99.90;;;;;;5116818;28;20173;-82
2023/04/14 07:46:32;;;;;;;5.13;4.57;;;5.20;99.90;;;;;;5098402;28;20210;-81
2023/04/14 07:48:58;;;;;;;5.97;4.97;;;5.20;99.90;;;;;;5117860;28;20225;-81
2023/04/14 07:51:23;;;;;;;8.07;5.40;;;5.20;99.90;;;;;;5117177;28;20198;-82
2023/04/14 07:53:51;;;;;;;7.40;5.53;;;5.30;99.90;;;;;;5116808;28;20644;-81
2023/04/14 07:56:17;;;;;;;6.00;4.93;;;5.40;99.90;;;;;;5098515;28;20194;-82
2023/04/14 07:58:43;;;;;;;7.03;5.10;;;5.60;99.90;;;;;;5097629;28;20169;-83
2023/04/14 08:01:08;;;;;;;6.90;5.30;;;5.80;99.90;;;;;;5116174;28;20171;-83
2023/04/14 08:03:37;;;;;;;7.80;5.97;;;5.90;99.90;;;;;;5099021;28;20228;-82
2023/04/14 08:06:06;;;;;;;8.37;6.30;;;6.00;99.90;;;;;;5098388;28;20196;-82
2023/04/14 08:08:33;;;;;;;6.80;5.53;;;6.20;99.90;;;;;;5118437;28;20238;-82
2023/04/14 08:10:59;;;;;;;7.13;5.73;;;6.50;99.90;;;;;;5116934;28;20253;-81
2023/04/14 08:13:25;;;;;;;7.00;5.50;;;6.60;99.90;;;;;;5100682;28;20198;-80
2023/04/14 08:15:50;;;;;;;6.23;5.20;;;6.50;99.90;;;;;;5117065;28;20192;-82
2023/04/14 08:18:16;;;;;;;6.40;5.00;;;6.40;99.90;;;;;;5097863;28;20209;-82
2023/04/14 08:20:43;;;;;;;7.87;5.83;;;6.60;99.90;;;;;;5115396;28;20178;-81
2023/04/14 08:23:10;;;;;;;7.57;4.87;;;6.90;99.90;;;;;;5116713;28;20200;-80
2023/04/14 08:25:35;;;;;;;6.13;4.83;;;7.10;99.90;;;;;;5112698;28;20286;-82
2023/04/14 08:28:01;;;;;;;6.50;4.97;;;7.00;99.90;;;;;;5092610;28;20279;-82
2023/04/14 08:30:26;;;;;;;6.83;5.07;;;7.10;99.90;;;;;;5113523;27;20174;-81
2023/04/14 08:32:52;;;;;;;7.47;6.00;;;7.00;99.90;;;;;;5090313;27;20202;-81
2023/04/14 08:35:17;;;;;;;6.83;5.37;;;6.90;99.90;;;;;;5090363;28;20171;-82
2023/04/14 08:37:43;;;;;;;8.40;6.00;;;7.00;99.90;;;;;;5108311;28;20188;-83
2023/04/14 08:40:10;;;;;;;8.23;6.10;;;7.10;99.90;;;;;;5112760;28;20164;-84
2023/04/14 08:42:36;;;;;;;7.60;6.17;;;7.00;99.90;;;;;;5112722;27;20184;-83
2023/04/14 08:45:01;;;;;;;7.40;5.90;;;7.10;99.90;;;;;;5093014;28;20247;-83
2023/04/14 08:47:32;;;;;;;7.30;6.27;;;7.10;99.90;;;;;;5109066;28;20215;-83
2023/04/14 08:50:03;;;;;;;7.20;5.30;;;7.20;99.90;;;;;;5087791;28;20677;-81
2023/04/14 08:52:30;;;;;;;8.27;6.53;;;7.30;99.90;;;;;;5090156;28;20202;-83
2023/04/14 08:54:59;;;;;;;7.40;5.97;;;7.60;99.90;;;;;;5103529;28;20220;-83
2023/04/14 08:57:27;;;;;;;8.17;6.33;;;7.90;99.90;;;;;;5090496;28;20206;-82
2023/04/14 08:59:56;;;;;;;7.33;6.50;;;8.20;99.90;;;;;;5093728;28;20168;-84
2023/04/14 09:02:22;;;;;;;7.50;5.83;;;8.50;99.90;;;;;;5085248;28;20183;-83
2023/04/14 09:04:48;;;;;;;7.50;5.93;;;8.60;99.90;;;;;;5107628;28;20180;-83
2023/04/14 09:07:15;;;;;;;7.63;6.00;;;8.70;99.90;;;;;;5113433;28;20574;-83
2023/04/14 09:09:42;;;;;;;7.73;6.33;;;9.00;99.90;;;;;;5113243;28;20172;-83
2023/04/14 09:12:08;;;;;;;7.60;6.17;;;9.20;99.90;;;;;;5113474;28;20586;-83
2023/04/14 09:14:34;;;;;;;8.13;6.40;;;9.20;99.90;;;;;;5095404;28;20233;-83
2023/04/14 09:17:00;;;;;;;8.17;6.00;;;9.20;99.90;;;;;;5095226;28;20242;-83
2023/04/14 09:19:27;;;;;;;6.00;5.40;;;9.30;99.90;;;;;;5095968;28;20175;-83
2023/04/14 09:21:53;;;;;;;6.77;5.83;;;9.70;99.90;;;;;;5113097;28;20263;-84
2023/04/14 09:24:22;;;;;;;7.40;5.50;;;9.80;99.90;;;;;;5113484;28;20169;-86
2023/04/14 09:26:51;;;;;;;7.47;5.10;;;10.00;99.90;;;;;;5095314;28;20280;-85
2023/04/14 09:29:17;;;;;;;7.73;5.40;;;10.20;99.90;;;;;;5113632;28;20174;-87
2023/04/14 09:31:44;;;;;;;6.87;5.87;;;10.20;99.90;;;;;;5112137;28;20206;-86
2023/04/14 09:34:19;;;;;;;8.17;5.20;;;10.20;99.90;;;;;;5113515;28;20169;-85
2023/04/14 09:37:01;;;;;;;7.00;5.70;;;10.20;99.90;;;;;;5112597;28;20289;-86
2023/04/14 09:39:27;;;;;;;7.80;5.30;;;10.30;99.90;;;;;;5112847;28;20597;-86
2023/04/14 09:41:53;;;;;;;7.67;4.97;;;10.30;99.90;;;;;;5094179;28;20207;-85
2023/04/14 09:44:18;;;;;;;7.90;5.20;;;10.40;99.90;;;;;;5094417;28;20219;-85
2023/04/14 09:47:04;;;;;;;6.03;4.70;;;10.50;99.90;;;;;;5112485;28;20195;-85
2023/04/14 09:49:30;;;;;;;6.47;4.43;;;10.60;99.90;;;;;;5112806;28;20176;-83
2023/04/14 09:52:07;;;;;;;8.40;4.67;;;10.50;99.90;;;;;;5112253;28;20566;-86
2023/04/14 09:54:33;;;;;;;6.33;4.33;;;10.70;99.90;;;;;;5094123;28;20167;-85
2023/04/14 09:57:00;;;;;;;5.10;4.40;;;10.70;99.90;;;;;;5093866;28;20196;-84
2023/04/14 09:59:32;;;;;;;7.07;4.17;;;10.70;99.90;;;;;;5113096;28;20178;-86
2023/04/14 10:02:02;;;;;;;4.90;4.00;;;10.60;99.90;;;;;;5112270;28;20179;-84
2023/04/14 10:04:27;;;;;;;5.97;3.93;;;10.50;99.90;;;;;;5112419;28;20171;-85
2023/04/14 10:06:57;;;;;;;157.40;35.00;;;10.40;99.90;;;;;;5094404;28;20194;-83
2023/04/14 10:09:26;;;;;;;268.13;82.43;;;10.70;99.90;;;;;;5113437;28;20171;-82
2023/04/14 10:12:13;;;;;;;170.93;58.27;;;10.80;99.90;;;;;;5113326;28;20212;-82
2023/04/14 10:14:43;;;;;;;33.90;13.57;;;11.10;99.90;;;;;;5112891;28;20212;-85
2023/04/14 10:17:09;;;;;;;5.97;3.90;;;11.20;99.90;;;;;;5094193;28;20191;-86
2023/04/14 10:19:36;;;;;;;5.33;3.90;;;11.00;99.90;;;;;;5094049;28;20168;-81
2023/04/14 10:22:03;;;;;;;4.80;4.00;;;10.80;99.90;;;;;;5102767;28;20212;-88
2023/04/14 10:24:29;;;;;;;5.10;4.10;;;10.60;99.90;;;;;;5100317;28;20571;-83
2023/04/14 10:26:56;;;;;;;5.07;3.77;;;10.50;99.90;;;;;;5099769;28;20689;-84
2023/04/14 10:29:22;;;;;;;5.57;4.03;;;10.40;99.90;;;;;;5093793;28;20171;-85
2023/04/14 10:31:53;;;;;;;5.33;4.17;;;10.50;99.90;;;;;;5111668;28;20210;-85
2023/04/14 10:34:22;;;;;;;7.20;5.17;;;10.50;99.90;;;;;;5093943;28;20261;-84
2023/04/14 10:36:48;;;;;;;5.40;4.67;;;10.60;99.90;;;;;;5145406;22;20223;-79
2023/04/14 10:39:20;;;;;;;5.87;4.77;;;10.70;99.90;;;;;;5074220;28;20177;-77
2023/04/14 10:41:47;;;;;;;7.50;4.43;;;10.80;99.90;;;;;;5073729;28;20255;-79
2023/04/14 10:44:27;;;;;;;7.63;4.60;;;11.00;99.90;;;;;;5092183;28;20172;-79
2023/04/14 10:46:55;;;;;;;15.80;7.27;;;11.50;99.90;;;;;;5092467;28;20666;-78
2023/04/14 10:49:32;;;;;;;8.43;4.77;;;12.30;99.90;;;;;;5075403;28;20625;-77
2023/04/14 10:52:00;;;;;;;6.20;4.53;;;12.80;99.90;;;;;;5075908;28;20205;-78
2023/04/14 10:54:26;;;;;;;6.57;3.90;;;12.90;99.90;;;;;;5094127;28;20167;-78
2023/04/14 10:57:11;;;;;;;4.10;3.57;;;13.20;99.90;;;;;;5093568;28;20196;-77
2023/04/14 10:59:46;;;;;;;4.97;3.50;;;13.00;99.90;;;;;;5093281;28;20175;-75
2023/04/14 11:02:28;;;;;;;4.23;3.50;;;13.00;99.90;;;;;;5093579;28;20172;-82
2023/04/14 11:05:01;;;;;;;4.40;3.30;;;12.60;95.60;;;;;;5074380;28;20659;-82
2023/04/14 11:07:29;;;;;;;7.03;4.27;;;12.40;99.90;;;;;;5093861;28;20188;-82
2023/04/14 11:10:16;;;;;;;5.40;3.73;;;12.10;99.90;;;;;;5077504;28;20180;-82
2023/04/14 11:12:46;;;;;;;12.40;7.63;;;12.10;99.90;;;;;;5096158;28;20210;-82
2023/04/14 11:15:12;;;;;;;4.53;3.43;;;12.00;99.90;;;;;;5095605;28;20172;-84
2023/04/14 11:17:39;;;;;;;5.43;3.87;;;12.20;99.90;;;;;;5077188;28;20620;-84
2023/04/14 11:20:17;;;;;;;5.33;3.77;;;12.30;99.90;;;;;;5094915;28;20623;-82
2023/04/14 11:22:45;;;;;;;11.30;7.50;;;12.50;99.90;;;;;;5096303;28;20182;-83
2023/04/14 11:25:12;;;;;;;7.27;5.00;;;12.80;99.90;;;;;;5078155;28;20173;-82
2023/04/14 11:27:38;;;;;;;6.90;4.90;;;13.00;97.20;;;;;;5079057;28;20206;-83
2023/04/14 11:30:31;;;;;;;4.53;3.30;;;13.00;99.90;;;;;;5077701;28;20180;-82
2023/04/14 11:32:57;;;;;;;38.80;21.23;;;13.20;98.30;;;;;;5092693;28;20208;-82
2023/04/14 11:35:24;;;;;;;5.17;3.87;;;13.40;99.90;;;;;;5096841;28;20203;-82
2023/04/14 11:37:57;;;;;;;6.03;3.63;;;13.80;99.90;;;;;;5078147;28;20692;-82
2023/04/14 11:40:25;;;;;;;5.07;3.50;;;14.00;91.00;;;;;;5077472;28;20168;-85
2023/04/14 11:42:53;;;;;;;13.23;7.47;;;13.90;94.60;;;;;;5095952;28;20255;-82
2023/04/14 11:45:19;;;;;;;12.07;7.67;;;13.90;97.50;;;;;;5096860;28;20176;-84
2023/04/14 11:47:59;;;;;;;6.60;3.97;;;13.50;96.40;;;;;;5096224;28;20575;-82
2023/04/14 11:50:26;;;;;;;9.80;5.60;;;13.30;99.90;;;;;;5095497;28;20168;-82
2023/04/14 11:52:54;;;;;;;5.97;3.83;;;13.30;99.90;;;;;;5078031;28;20200;-83
2023/04/14 11:55:22;;;;;;;4.57;3.17;;;13.10;99.90;;;;;;5077441;28;20169;-84
2023/04/14 11:57:48;;;;;;;4.37;2.77;;;12.50;99.90;;;;;;5077245;28;20188;-82
2023/04/14 12:00:14;;;;;;;14.67;9.37;;;12.00;99.90;;;;;;5076449;28;20164;-82
2023/04/14 12:02:44;;;;;;;6.23;4.07;;;11.60;99.90;;;;;;5077109;28;20172;-83
2023/04/14 12:05:12;;;;;;;3.40;2.50;;;11.40;99.90;;;;;;5095031;28;20169;-82
2023/04/14 12:07:41;;;;;;;12.40;7.73;;;11.20;99.90;;;;;;5076858;28;20203;-82
2023/04/14 12:10:07;;;;;;;33.37;19.90;;;11.10;99.90;;;;;;5076951;28;20530;-82
2023/04/14 12:12:33;;;;;;;6.53;3.83;;;11.10;99.90;;;;;;5077755;28;20636;-82
2023/04/14 12:14:59;;;;;;;3.73;2.80;;;10.90;99.90;;;;;;5077768;28;20630;-84
2023/04/14 12:17:25;;;;;;;5.60;3.80;;;10.90;99.90;;;;;;5097054;28;20200;-83
2023/04/14 12:19:51;;;;;;;7.60;4.37;;;10.60;99.90;;;;;;5076715;28;20168;-85
2023/04/14 12:22:34;;;;;;;9.60;6.27;;;10.70;99.90;;;;;;5078238;28;20187;-82
2023/04/14 12:25:12;;;;;;;15.43;8.13;;;10.80;99.90;;;;;;5082501;28;20267;-82
2023/04/14 12:27:37;;;;;;;2.27;1.77;;;11.00;99.90;;;;;;5069486;28;20241;-82
2023/04/14 12:30:04;;;;;;;5.70;3.27;;;11.00;99.90;;;;;;5095415;28;20180;-83
2023/04/14 12:32:40;;;;;;;6.70;3.67;;;11.20;99.90;;;;;;5077555;28;20248;-82
2023/04/14 12:35:06;;;;;;;5.40;3.60;;;11.10;99.90;;;;;;5077806;28;20176;-83
2023/04/14 12:37:32;;;;;;;2.33;1.47;;;11.30;99.90;;;;;;5096052;28;20282;-84
2023/04/14 12:40:00;;;;;;;8.47;5.77;;;11.30;99.90;;;;;;5076564;28;20172;-80
2023/04/14 12:42:26;;;;;;;2.70;2.30;;;11.50;99.90;;;;;;5097522;28;20176;-83
2023/04/14 12:45:00;;;;;;;13.00;8.33;;;11.50;99.90;;;;;;5080017;28;20176;-81
2023/04/14 12:47:33;;;;;;;4.03;2.67;;;11.70;99.90;;;;;;5079658;28;20726;-82
2023/04/14 12:50:20;;;;;;;4.50;2.53;;;11.80;99.90;;;;;;5098485;28;20176;-79
2023/04/14 12:52:46;;;;;;;2.40;1.90;;;11.90;99.90;;;;;;5096504;28;20192;-83
2023/04/14 12:55:20;;;;;;;3.60;2.70;;;12.00;99.90;;;;;;5081256;28;20169;-82
2023/04/14 12:57:45;;;;;;;3.50;2.43;;;12.00;97.80;;;;;;5099689;28;20211;-81